Alder Grove, Washington
Current Conditions -  °F | °C
As of 5:53 AM on Thursday 23 Oct 2014 (Local Time) from KSHN Reporting Station
Light Rain Light Rain  
Wind Chill: 51°   Ceiling: 6000
Heat Index: 51°   Visibility: 10mi
Dew Point: 49°   Wind: 0mph
Humidity: 92%   Direction: NA
Pressure: 29.68"   Gusts: NA
Location:  47.555°N, 123.746°W
Report Text: KSHN 231253Z AUTO 00000KT 10SM -RA FEW040 BKN060 OVC075 11/09 A2968 RMK AO2 RAE35B52 SLP053 P0001 T01060094 TSNO
Loading
Personal Weather Stations






























Interactive Weather Map
Tropical Storm Tracking
New forecast layout! Learn more

10-Day Weather Forecast

Advertisements
Track Severe Weather on mobile